Time;durP1;ratioP1;P1;durP2;ratioP2;P2;SDS_P1;SDS_P2;PMS_P1;PMS_P2;Temp;Humidity;BMP_temperature;BMP_pressure;BME280_temperature;BME280_humidity;BME280_pressure;Samples;Min_cycle;Max_cycle;Signal;HPM_P1;HPM_P2
2023/07/12 00:00:46;;;;;;;6.10;4.80;;;19.20;1.00;;;;;;5052673;28;20472;-73
2023/07/12 00:03:12;;;;;;;11.07;4.97;;;19.00;1.00;;;;;;5052149;28;20436;-71
2023/07/12 00:05:38;;;;;;;5.20;4.70;;;19.00;1.00;;;;;;5051676;28;20437;-68
2023/07/12 00:08:05;;;;;;;7.97;4.60;;;19.10;1.00;;;;;;5052978;28;20459;-72
2023/07/12 00:10:34;;;;;;;10.23;4.30;;;19.20;1.00;;;;;;5053084;28;20494;-74
2023/07/12 00:13:00;;;;;;;10.73;5.00;;;19.30;1.00;;;;;;5034801;28;20448;-71
2023/07/12 00:15:30;;;;;;;5.30;4.40;;;19.40;1.00;;;;;;5066689;28;20432;-68
2023/07/12 00:17:56;;;;;;;6.77;4.53;;;19.30;1.00;;;;;;5072792;28;20437;-73
2023/07/12 00:20:27;;;;;;;8.07;4.30;;;19.20;1.00;;;;;;5068914;28;20944;-73
2023/07/12 00:22:53;;;;;;;10.50;4.67;;;19.20;1.00;;;;;;5069962;28;20428;-68
2023/07/12 00:25:22;;;;;;;11.77;3.70;;;19.20;1.00;;;;;;5071068;28;20924;-67
2023/07/12 00:27:49;;;;;;;9.73;4.53;;;19.30;1.00;;;;;;5056809;28;20484;-68
2023/07/12 00:30:18;;;;;;;5.10;4.60;;;19.30;1.00;;;;;;5034887;28;20516;-68
2023/07/12 00:32:46;;;;;;;5.00;4.50;;;19.20;1.00;;;;;;5054381;28;20930;-72
2023/07/12 00:35:18;;;;;;;5.73;4.00;;;19.20;1.00;;;;;;5056698;28;20503;-73
2023/07/12 00:37:44;;;;;;;5.63;4.43;;;19.20;1.00;;;;;;5056426;28;20464;-67
2023/07/12 00:40:41;;;;;;;11.17;5.03;;;19.20;1.00;;;;;;5056767;28;20794;-70
2023/07/12 00:43:16;;;;;;;5.80;4.90;;;19.30;1.00;;;;;;5014680;28;20437;-70
2023/07/12 00:45:44;;;;;;;5.83;3.73;;;19.30;1.00;;;;;;5056614;28;20459;-68
2023/07/12 00:48:12;;;;;;;5.60;3.67;;;19.30;1.00;;;;;;5057931;28;20499;-67
2023/07/12 00:50:38;;;;;;;6.03;4.30;;;19.40;1.00;;;;;;5076632;28;20487;-69
2023/07/12 00:53:04;;;;;;;9.03;4.20;;;19.40;1.00;;;;;;5061605;28;20487;-73
2023/07/12 00:55:59;;;;;;;7.00;3.80;;;19.40;1.00;;;;;;5055576;28;20793;-68
2023/07/12 00:58:37;;;;;;;4.40;4.00;;;19.50;1.00;;;;;;5056693;28;20539;-73
2023/07/12 01:01:05;;;;;;;10.80;5.03;;;19.60;1.00;;;;;;5073473;28;20460;-73
2023/07/12 01:03:34;;;;;;;4.20;3.80;;;19.70;1.00;;;;;;5058016;28;20448;-74
2023/07/12 01:06:01;;;;;;;6.77;4.47;;;19.70;1.00;;;;;;5055032;28;20511;-74
2023/07/12 01:08:27;;;;;;;9.17;4.00;;;19.60;1.00;;;;;;5056385;28;20493;-67
2023/07/12 01:10:53;;;;;;;8.37;4.30;;;19.60;1.00;;;;;;5056327;28;20881;-66
2023/07/12 01:13:21;;;;;;;6.07;3.40;;;19.60;1.00;;;;;;5055884;28;20498;-64
2023/07/12 01:15:47;;;;;;;2.83;2.60;;;19.60;7.70;;;;;;5055131;28;20494;-64
2023/07/12 01:18:14;;;;;;;4.83;3.60;;;19.40;16.10;;;;;;5055964;28;20421;-70
2023/07/12 01:20:41;;;;;;;5.53;2.87;;;19.40;28.40;;;;;;5053919;28;20506;-68
2023/07/12 01:23:07;;;;;;;3.53;2.97;;;19.30;53.20;;;;;;5061368;28;20436;-71
2023/07/12 01:25:40;;;;;;;4.43;2.57;;;19.30;69.90;;;;;;5054811;28;20429;-71
2023/07/12 01:28:06;;;;;;;4.63;2.53;;;19.20;85.90;;;;;;5055907;28;20191;-71
2023/07/12 01:30:32;;;;;;;7.00;3.13;;;19.10;95.40;;;;;;5055494;28;20519;-65
2023/07/12 01:32:58;;;;;;;5.37;2.77;;;19.00;95.30;;;;;;5055563;28;20464;-65
2023/07/12 01:35:25;;;;;;;2.97;2.57;;;19.00;99.90;;;;;;5054588;28;20429;-66
2023/07/12 01:37:51;;;;;;;5.27;2.90;;;18.90;99.90;;;;;;5037580;28;20655;-67
2023/07/12 01:40:17;;;;;;;2.70;2.50;;;18.90;99.90;;;;;;5056056;28;20539;-65
2023/07/12 01:42:43;;;;;;;4.77;2.27;;;18.80;99.90;;;;;;5073156;28;20170;-67
2023/07/12 01:45:09;;;;;;;3.27;2.33;;;18.80;99.90;;;;;;5060009;28;20437;-71
2023/07/12 01:47:35;;;;;;;2.60;2.40;;;18.80;99.90;;;;;;5054858;28;20437;-72
2023/07/12 01:50:01;;;;;;;3.63;2.30;;;18.90;99.90;;;;;;5046219;28;20770;-72
2023/07/12 01:52:27;;;;;;;4.30;2.10;;;18.90;99.90;;;;;;5066070;28;20674;-67
2023/07/12 01:54:53;;;;;;;4.53;2.90;;;18.80;99.90;;;;;;5055249;28;20406;-72
2023/07/12 01:57:18;;;;;;;3.23;2.47;;;18.60;99.90;;;;;;5054136;28;20197;-71
2023/07/12 01:59:44;;;;;;;4.10;3.33;;;18.50;99.90;;;;;;5056035;28;20226;-71
2023/07/12 02:02:10;;;;;;;2.90;2.60;;;18.50;99.90;;;;;;5056468;28;20520;-67
2023/07/12 02:04:36;;;;;;;3.60;2.40;;;18.50;99.90;;;;;;5055281;28;20261;-69
2023/07/12 02:07:03;;;;;;;6.37;2.80;;;18.60;99.90;;;;;;5054388;28;20191;-65
2023/07/12 02:09:34;;;;;;;3.37;2.37;;;18.60;99.90;;;;;;5067442;28;20776;-71
2023/07/12 02:12:00;;;;;;;3.40;2.70;;;18.50;99.90;;;;;;5073136;28;20435;-70
2023/07/12 02:14:26;;;;;;;2.50;2.30;;;18.50;99.90;;;;;;5062467;28;20429;-68
2023/07/12 02:16:52;;;;;;;6.03;2.60;;;18.50;99.90;;;;;;5035678;28;20269;-70
2023/07/12 02:19:17;;;;;;;2.53;2.30;;;18.60;99.90;;;;;;5072695;28;20527;-66
2023/07/12 02:21:43;;;;;;;2.70;2.33;;;18.50;99.90;;;;;;5073040;28;20209;-71
2023/07/12 02:24:09;;;;;;;4.47;2.10;;;18.40;99.90;;;;;;5074905;28;20193;-71
2023/07/12 02:26:35;;;;;;;3.30;2.40;;;18.40;99.90;;;;;;5073099;28;20268;-72
2023/07/12 02:29:01;;;;;;;7.37;2.57;;;18.30;99.90;;;;;;5065692;28;20182;-66
2023/07/12 02:31:30;;;;;;;2.27;2.07;;;18.30;99.90;;;;;;5054458;28;20402;-65
2023/07/12 02:33:56;;;;;;;3.53;1.97;;;18.30;99.90;;;;;;5053964;28;20661;-67
2023/07/12 02:36:22;;;;;;;3.00;1.93;;;18.30;99.90;;;;;;5035916;28;20527;-66
2023/07/12 02:38:48;;;;;;;3.10;2.20;;;18.40;99.90;;;;;;5067925;28;20186;-65
2023/07/12 02:41:15;;;;;;;3.20;1.83;;;18.30;99.90;;;;;;5072287;28;20452;-68
2023/07/12 02:43:41;;;;;;;2.10;1.90;;;18.30;99.90;;;;;;5055024;28;20187;-65
2023/07/12 02:46:06;;;;;;;2.37;1.90;;;18.30;99.90;;;;;;5053390;28;20881;-68
2023/07/12 02:48:32;;;;;;;5.30;2.43;;;18.30;99.90;;;;;;5051702;28;20448;-70
2023/07/12 02:50:58;;;;;;;2.97;2.10;;;18.30;99.90;;;;;;5074409;28;20570;-64
2023/07/12 02:53:24;;;;;;;5.63;2.37;;;18.40;99.90;;;;;;5056451;28;20429;-65
2023/07/12 02:55:50;;;;;;;4.17;2.23;;;18.30;99.90;;;;;;5052861;28;20166;-69
2023/07/12 02:58:17;;;;;;;3.53;2.10;;;18.40;99.90;;;;;;5053331;28;20210;-68
2023/07/12 03:00:42;;;;;;;3.07;2.27;;;18.40;99.90;;;;;;5070448;28;20479;-66
2023/07/12 03:03:09;;;;;;;4.43;2.53;;;18.30;99.90;;;;;;5072377;28;20477;-64
2023/07/12 03:05:38;;;;;;;2.60;2.40;;;18.20;99.90;;;;;;5073183;28;20158;-68
2023/07/12 03:08:05;;;;;;;5.37;2.77;;;18.10;1.00;;;;;;5056601;28;20452;-67
2023/07/12 03:10:31;;;;;;;9.33;2.70;;;18.10;1.00;;;;;;5053125;28;20455;-69
2023/07/12 03:12:57;;;;;;;5.80;2.83;;;18.00;1.00;;;;;;5035558;28;20437;-67
2023/07/12 03:15:23;;;;;;;2.53;2.10;;;17.90;1.00;;;;;;5052790;28;20425;-64
2023/07/12 03:17:49;;;;;;;13.23;3.10;;;17.90;1.00;;;;;;5053532;28;20245;-66
2023/07/12 03:20:15;;;;;;;5.20;3.00;;;17.90;1.00;;;;;;5053679;28;20848;-64
2023/07/12 03:22:40;;;;;;;5.40;2.80;;;17.80;1.00;;;;;;5053563;28;20174;-68
2023/07/12 03:25:07;;;;;;;5.80;2.30;;;17.80;1.00;;;;;;5052758;28;20669;-69
2023/07/12 03:27:32;;;;;;;4.53;2.60;;;17.80;1.00;;;;;;5053447;28;20191;-65
2023/07/12 03:29:59;;;;;;;6.60;2.70;;;17.80;1.00;;;;;;5034979;28;20947;-65
2023/07/12 03:32:25;;;;;;;2.87;2.50;;;17.80;1.00;;;;;;5053554;28;20293;-65
2023/07/12 03:34:51;;;;;;;4.90;2.33;;;17.80;1.00;;;;;;5053361;28;20401;-70
2023/07/12 03:37:16;;;;;;;2.60;2.40;;;17.80;1.00;;;;;;5052692;28;20428;-65
2023/07/12 03:39:43;;;;;;;13.40;3.50;;;17.90;1.00;;;;;;5060444;28;20197;-65
2023/07/12 03:42:09;;;;;;;2.90;2.60;;;17.90;1.00;;;;;;5066610;28;20167;-69
2023/07/12 03:44:35;;;;;;;3.07;2.77;;;18.00;1.00;;;;;;5053054;28;20429;-67
2023/07/12 03:47:01;;;;;;;2.87;2.67;;;18.00;1.00;;;;;;5051107;28;20457;-65
2023/07/12 03:49:28;;;;;;;3.47;2.67;;;18.00;6.60;;;;;;5053323;28;20793;-65
2023/07/12 03:51:53;;;;;;;2.97;2.70;;;18.00;11.40;;;;;;5053116;28;20603;-66
2023/07/12 03:54:21;;;;;;;6.73;2.97;;;18.10;17.40;;;;;;5053186;28;20406;-65
2023/07/12 03:56:47;;;;;;;3.97;3.57;;;18.20;24.90;;;;;;5052118;28;20586;-65
2023/07/12 03:59:13;;;;;;;7.73;5.80;;;18.20;28.20;;;;;;5035164;28;20448;-69
2023/07/12 04:01:38;;;;;;;4.13;2.83;;;18.20;33.10;;;;;;5052772;28;20456;-65
2023/07/12 04:04:04;;;;;;;5.20;2.80;;;18.20;31.90;;;;;;5052575;28;20402;-65
2023/07/12 04:06:31;;;;;;;5.50;3.13;;;18.20;30.80;;;;;;5050839;28;20190;-65
2023/07/12 04:08:57;;;;;;;2.50;2.30;;;18.20;40.40;;;;;;5053038;28;20929;-70
2023/07/12 04:11:27;;;;;;;3.73;3.43;;;18.20;40.60;;;;;;5051747;28;20527;-72
2023/07/12 04:13:53;;;;;;;3.70;3.40;;;18.30;40.80;;;;;;5060687;28;20193;-65
2023/07/12 04:16:19;;;;;;;4.20;2.93;;;18.30;40.80;;;;;;5054510;28;20466;-66
2023/07/12 04:18:45;;;;;;;8.43;2.87;;;18.30;40.80;;;;;;5052584;28;20433;-71
2023/07/12 04:21:11;;;;;;;5.17;2.60;;;18.30;40.70;;;;;;5072413;28;20201;-65
2023/07/12 04:23:37;;;;;;;3.40;3.10;;;18.30;40.80;;;;;;5052248;28;20177;-66
2023/07/12 04:26:04;;;;;;;3.07;2.20;;;18.30;42.80;;;;;;5051080;28;20428;-65
2023/07/12 04:28:37;;;;;;;3.70;3.33;;;18.40;40.90;;;;;;5052920;28;20175;-65
2023/07/12 04:31:05;;;;;;;3.03;2.83;;;18.40;40.80;;;;;;5053273;28;20448;-65
2023/07/12 04:33:31;;;;;;;5.00;2.83;;;18.40;42.70;;;;;;5034943;28;20437;-66
2023/07/12 04:35:57;;;;;;;3.30;2.73;;;18.30;40.80;;;;;;5051354;28;20435;-65
2023/07/12 04:38:23;;;;;;;8.20;3.13;;;18.30;40.90;;;;;;5052735;28;20174;-71
2023/07/12 04:40:55;;;;;;;3.60;2.70;;;18.30;40.90;;;;;;5052549;28;20441;-65
2023/07/12 04:43:22;;;;;;;2.93;2.60;;;18.30;40.90;;;;;;5051212;28;20210;-70
2023/07/12 04:45:48;;;;;;;2.77;2.53;;;18.30;43.60;;;;;;5051767;28;20417;-71
2023/07/12 04:48:15;;;;;;;3.30;2.77;;;18.30;52.20;;;;;;5052432;28;20436;-66
2023/07/12 04:50:41;;;;;;;3.70;2.80;;;18.30;56.60;;;;;;5052528;28;20405;-72
2023/07/12 04:53:07;;;;;;;5.07;2.70;;;18.30;60.00;;;;;;5052251;28;20955;-65
2023/07/12 04:55:34;;;;;;;7.43;3.67;;;18.40;62.90;;;;;;5034355;28;20405;-69
2023/07/12 04:57:59;;;;;;;5.17;3.20;;;18.40;65.10;;;;;;5065604;28;20191;-65
2023/07/12 05:00:26;;;;;;;3.07;2.87;;;18.40;67.00;;;;;;5051519;28;20448;-67
2023/07/12 05:02:52;;;;;;;4.27;3.27;;;18.50;67.60;;;;;;5051707;28;20181;-66
2023/07/12 05:05:20;;;;;;;3.87;2.73;;;18.50;67.80;;;;;;5054722;28;20421;-70
2023/07/12 05:07:47;;;;;;;2.60;2.40;;;18.50;71.50;;;;;;5070013;28;20443;-65
2023/07/12 05:10:13;;;;;;;3.07;2.87;;;18.50;73.40;;;;;;5084041;28;20486;-68
2023/07/12 05:12:41;;;;;;;3.10;2.87;;;18.50;65.20;;;;;;5072045;28;20567;-65
2023/07/12 05:15:08;;;;;;;3.07;2.70;;;18.40;63.60;;;;;;5071526;28;20202;-66
2023/07/12 05:17:35;;;;;;;3.17;2.87;;;18.40;60.20;;;;;;5070675;28;20452;-65
2023/07/12 05:20:03;;;;;;;5.83;2.77;;;18.40;60.30;;;;;;5075980;28;20443;-66
2023/07/12 05:22:28;;;;;;;4.77;3.50;;;18.40;59.90;;;;;;5067572;28;20429;-70
2023/07/12 05:24:56;;;;;;;6.70;3.23;;;18.40;57.70;;;;;;5053493;28;20421;-72
2023/07/12 05:27:22;;;;;;;6.47;2.80;;;18.30;45.50;;;;;;5049300;28;20570;-66
2023/07/12 05:29:48;;;;;;;3.33;2.90;;;18.30;54.90;;;;;;5056056;28;20480;-66
2023/07/12 05:32:14;;;;;;;3.20;3.00;;;18.40;65.00;;;;;;5055340;28;20175;-65
2023/07/12 05:34:41;;;;;;;3.33;3.13;;;18.40;72.60;;;;;;5066323;28;20185;-65
2023/07/12 05:37:08;;;;;;;5.83;3.33;;;18.40;69.70;;;;;;5057495;28;20657;-71
2023/07/12 05:39:33;;;;;;;5.73;4.20;;;18.40;68.20;;;;;;5055336;28;20497;-65
2023/07/12 05:41:59;;;;;;;12.43;3.70;;;18.40;73.60;;;;;;5057927;28;20520;-70
2023/07/12 05:44:25;;;;;;;6.03;3.17;;;18.30;70.00;;;;;;5037652;28;20187;-65
2023/07/12 05:46:51;;;;;;;3.20;2.60;;;18.30;76.50;;;;;;5054338;28;20195;-66
2023/07/12 05:49:16;;;;;;;5.70;3.20;;;18.30;84.50;;;;;;5053930;28;20985;-67
2023/07/12 05:51:42;;;;;;;3.50;3.20;;;18.30;87.00;;;;;;5066597;28;20179;-67
2023/07/12 05:54:08;;;;;;;5.77;3.53;;;18.30;87.00;;;;;;5061826;28;20181;-70
2023/07/12 05:56:34;;;;;;;5.27;3.50;;;18.30;87.10;;;;;;5057979;28;20436;-68
2023/07/12 05:58:59;;;;;;;3.33;3.00;;;18.30;87.10;;;;;;5054999;28;20576;-66
2023/07/12 06:01:26;;;;;;;3.60;3.30;;;18.20;92.60;;;;;;5054301;28;20211;-66
2023/07/12 06:03:53;;;;;;;4.60;3.13;;;18.30;96.10;;;;;;5055744;28;20260;-67
2023/07/12 06:06:19;;;;;;;4.97;2.90;;;18.20;99.30;;;;;;5054320;28;20432;-68
2023/07/12 06:08:45;;;;;;;6.50;3.10;;;18.30;99.90;;;;;;5055192;28;20488;-66
2023/07/12 06:11:11;;;;;;;4.43;3.57;;;18.30;99.90;;;;;;5055335;28;20425;-68
2023/07/12 06:13:36;;;;;;;3.80;3.23;;;18.30;99.90;;;;;;5047060;28;20459;-69
2023/07/12 06:16:03;;;;;;;4.00;3.00;;;18.30;99.90;;;;;;5074154;28;20174;-68
2023/07/12 06:18:32;;;;;;;4.87;3.07;;;18.20;99.90;;;;;;5055393;28;20182;-64
2023/07/12 06:20:59;;;;;;;3.83;2.87;;;18.30;99.90;;;;;;5054923;28;20453;-65
2023/07/12 06:23:26;;;;;;;8.07;4.10;;;18.30;99.90;;;;;;5054859;28;20451;-68
2023/07/12 06:25:57;;;;;;;10.50;3.93;;;18.30;99.90;;;;;;5055493;28;20401;-69
2023/07/12 06:28:23;;;;;;;3.90;3.40;;;18.30;99.90;;;;;;5065547;28;20425;-65
2023/07/12 06:30:48;;;;;;;4.80;3.53;;;18.30;99.90;;;;;;5053839;28;20727;-69
2023/07/12 06:33:14;;;;;;;4.87;4.27;;;18.30;99.90;;;;;;5036081;28;20190;-64
2023/07/12 06:35:40;;;;;;;8.40;4.17;;;18.40;99.90;;;;;;5053741;28;20332;-65
2023/07/12 06:38:06;;;;;;;4.77;4.37;;;18.40;99.90;;;;;;5054626;28;20190;-65
2023/07/12 06:40:33;;;;;;;4.10;3.77;;;18.40;99.90;;;;;;5036550;28;20214;-65
2023/07/12 06:42:59;;;;;;;5.10;4.60;;;18.40;99.90;;;;;;5053856;28;20429;-64
2023/07/12 06:45:25;;;;;;;5.10;4.70;;;18.40;99.90;;;;;;5053643;28;20233;-65
2023/07/12 06:47:51;;;;;;;6.87;5.57;;;18.40;99.90;;;;;;5063037;28;20476;-65
2023/07/12 06:50:17;;;;;;;6.70;5.80;;;18.40;99.90;;;;;;5073833;28;20166;-69
2023/07/12 06:52:43;;;;;;;7.20;5.50;;;18.50;99.90;;;;;;5062285;28;20537;-65
2023/07/12 06:55:09;;;;;;;6.83;5.30;;;18.50;99.90;;;;;;5035130;28;20536;-64
2023/07/12 06:57:35;;;;;;;11.30;5.60;;;18.50;99.90;;;;;;5054194;28;20183;-67
2023/07/12 07:00:09;;;;;;;11.50;6.37;;;18.50;99.90;;;;;;5053516;28;20465;-68
2023/07/12 07:02:35;;;;;;;9.23;7.07;;;18.50;99.90;;;;;;5053630;28;20453;-68
2023/07/12 07:05:01;;;;;;;7.07;6.10;;;18.50;99.90;;;;;;5035869;28;20977;-68
2023/07/12 07:07:28;;;;;;;6.70;6.00;;;18.60;99.90;;;;;;5053715;28;20441;-67
2023/07/12 07:09:54;;;;;;;10.27;6.63;;;18.60;99.90;;;;;;5067534;28;20260;-65
2023/07/12 07:12:20;;;;;;;6.67;6.07;;;18.60;99.90;;;;;;5064557;28;20832;-68
2023/07/12 07:14:46;;;;;;;6.10;5.20;;;18.60;99.90;;;;;;5037000;28;20531;-64
2023/07/12 07:17:11;;;;;;;6.13;5.63;;;18.60;99.90;;;;;;5056912;28;20208;-69
2023/07/12 07:19:37;;;;;;;7.10;6.00;;;18.70;99.90;;;;;;5073820;28;20217;-65
2023/07/12 07:22:04;;;;;;;5.87;5.30;;;18.70;99.90;;;;;;5071442;28;20531;-65
2023/07/12 07:24:30;;;;;;;10.60;6.33;;;18.80;99.90;;;;;;5054165;28;20436;-67
2023/07/12 07:26:56;;;;;;;7.00;6.37;;;18.90;99.90;;;;;;5052407;28;20530;-65
2023/07/12 07:29:21;;;;;;;8.40;6.57;;;19.00;99.90;;;;;;5035535;28;20449;-65
2023/07/12 07:31:47;;;;;;;10.23;6.80;;;19.10;99.90;;;;;;5052228;28;20651;-68
2023/07/12 07:34:14;;;;;;;6.33;5.73;;;19.20;99.90;;;;;;5073510;28;20707;-68
2023/07/12 07:36:40;;;;;;;7.43;6.73;;;19.10;99.90;;;;;;5072546;28;20206;-68
2023/07/12 07:39:06;;;;;;;6.77;6.17;;;19.10;99.90;;;;;;5073716;28;20760;-66
2023/07/12 07:41:32;;;;;;;8.50;6.77;;;19.00;99.90;;;;;;5071303;28;20547;-69
2023/07/12 07:43:58;;;;;;;6.87;6.17;;;19.00;99.90;;;;;;5059476;28;20171;-69
2023/07/12 07:46:24;;;;;;;7.77;7.17;;;19.10;99.90;;;;;;5052424;28;20673;-68
2023/07/12 07:48:49;;;;;;;8.40;7.70;;;19.10;99.90;;;;;;5052385;28;20241;-68
2023/07/12 07:51:16;;;;;;;8.23;7.50;;;19.20;99.90;;;;;;5053382;28;20194;-64
2023/07/12 07:53:42;;;;;;;11.43;7.97;;;19.20;99.90;;;;;;5059408;28;20174;-65
2023/07/12 07:56:07;;;;;;;7.70;6.60;;;19.20;99.90;;;;;;5072145;28;20412;-66
2023/07/12 07:58:33;;;;;;;8.57;7.77;;;19.30;99.90;;;;;;5051153;28;20698;-65
2023/07/12 08:00:59;;;;;;;9.07;6.80;;;19.30;99.90;;;;;;5053133;28;20257;-64
2023/07/12 08:03:25;;;;;;;9.93;7.40;;;19.30;99.90;;;;;;5054638;28;20782;-64
2023/07/12 08:05:51;;;;;;;9.50;8.53;;;19.20;99.90;;;;;;5058620;28;20193;-69
2023/07/12 08:08:17;;;;;;;9.77;7.87;;;19.20;99.90;;;;;;5052399;28;20925;-65
2023/07/12 08:10:43;;;;;;;10.27;8.17;;;19.10;99.90;;;;;;5065143;28;20240;-64
2023/07/12 08:13:08;;;;;;;8.67;6.83;;;19.10;99.90;;;;;;5057320;28;20245;-68
2023/07/12 08:15:35;;;;;;;8.00;7.30;;;19.00;99.90;;;;;;5051672;28;20257;-65
2023/07/12 08:18:01;;;;;;;8.20;7.50;;;19.00;99.90;;;;;;5065763;28;20685;-64
2023/07/12 08:20:27;;;;;;;7.10;6.40;;;18.90;99.90;;;;;;5063960;28;20457;-64
2023/07/12 08:22:53;;;;;;;9.33;6.47;;;19.10;99.90;;;;;;5060423;28;20555;-70
2023/07/12 08:25:19;;;;;;;6.20;5.57;;;19.20;99.90;;;;;;5052007;28;20436;-69
2023/07/12 08:27:46;;;;;;;6.63;5.93;;;19.30;99.90;;;;;;5068677;28;20857;-65
2023/07/12 08:30:13;;;;;;;6.53;5.23;;;19.30;99.90;;;;;;5052518;28;20201;-67
2023/07/12 08:32:39;;;;;;;7.13;5.47;;;19.40;95.10;;;;;;5052727;28;20398;-69
2023/07/12 08:35:05;;;;;;;5.40;5.00;;;19.60;96.80;;;;;;5051946;28;20405;-66
2023/07/12 08:37:31;;;;;;;8.30;4.63;;;19.60;65.70;;;;;;5056347;28;20697;-70
2023/07/12 08:39:57;;;;;;;6.30;5.70;;;19.60;24.00;;;;;;5052977;28;20445;-68
2023/07/12 08:42:28;;;;;;;5.10;4.40;;;19.70;1.00;;;;;;5052673;28;20393;-66
2023/07/12 08:44:58;;;;;;;8.80;4.93;;;19.90;1.00;;;;;;5051661;28;20253;-71
2023/07/12 08:47:28;;;;;;;6.20;4.70;;;20.10;1.00;;;;;;5051524;28;20447;-65
2023/07/12 10:49:58;;;;;;;7.80;6.23;;;22.90;1.00;;;;;;5049179;28;20584;-61
2023/07/12 10:52:28;;;;;;;13.33;5.30;;;22.20;1.00;;;;;;5037270;28;20520;-66
2023/07/12 10:55:22;;;;;;;9.60;4.60;;;21.50;1.00;;;;;;5047416;28;20437;-64
2023/07/12 10:57:51;;;;;;;5.23;4.40;;;21.40;1.00;;;;;;5043937;28;20449;-71
2023/07/12 11:00:22;;;;;;;4.80;3.60;;;21.80;1.00;;;;;;5049999;28;20939;-73
2023/07/12 11:03:08;;;;;;;7.87;4.40;;;22.60;1.00;;;;;;5046042;28;20459;-66
2023/07/12 11:05:54;;;;;;;7.90;3.67;;;23.60;1.00;;;;;;5029063;28;20541;-74
2023/07/12 11:08:32;;;;;;;11.77;4.00;;;23.80;1.00;;;;;;5030084;28;20457;-72
2023/07/12 11:11:07;;;;;;;7.90;3.23;;;23.20;1.00;;;;;;5049391;28;20409;-71
2023/07/12 11:13:40;;;;;;;6.83;3.13;;;22.50;1.00;;;;;;5048114;28;20478;-72
2023/07/12 11:16:14;;;;;;;4.50;3.13;;;22.00;1.00;;;;;;5048860;28;20405;-67
2023/07/12 11:18:49;;;;;;;6.20;3.40;;;21.70;1.00;;;;;;5048915;28;20417;-65
2023/07/12 11:21:45;;;;;;;6.73;3.60;;;21.70;1.00;;;;;;5049986;28;20401;-66
2023/07/12 11:24:41;;;;;;;5.80;3.23;;;22.50;1.00;;;;;;5036614;28;20418;-72
2023/07/12 11:27:26;;;;;;;5.10;2.73;;;23.10;1.00;;;;;;5017541;28;20427;-67
2023/07/12 11:29:54;;;;;;;5.00;2.70;;;23.30;1.00;;;;;;5049413;28;20417;-65
2023/07/12 11:32:36;;;;;;;6.13;3.10;;;23.90;1.00;;;;;;5048411;28;20396;-69
2023/07/12 11:35:17;;;;;;;6.50;2.40;;;24.70;1.00;;;;;;5041084;28;20417;-70
2023/07/12 11:37:54;;;;;;;4.10;2.73;;;25.70;1.00;;;;;;5048350;28;20460;-68
2023/07/12 11:40:23;;;;;;;6.03;2.97;;;26.30;1.00;;;;;;5040040;28;20436;-73
2023/07/12 11:42:49;;;;;;;4.17;2.07;;;26.00;99.90;;;;;;5038594;28;20430;-66
2023/07/12 11:45:19;;;;;;;5.17;2.10;;;25.50;99.90;;;;;;5036331;28;20834;-67
2023/07/12 11:47:51;;;;;;;7.33;2.50;;;24.90;99.90;;;;;;5048336;28;20464;-64
2023/07/12 11:50:24;;;;;;;5.93;2.50;;;25.00;99.90;;;;;;5045237;28;20425;-71
2023/07/12 11:52:50;;;;;;;4.67;1.97;;;25.50;99.90;;;;;;5029144;28;20419;-72
2023/07/12 11:55:19;;;;;;;5.07;2.50;;;26.50;99.90;;;;;;5028497;28;20402;-65
2023/07/12 11:57:46;;;;;;;7.60;2.17;;;27.00;99.90;;;;;;5038356;28;20454;-69
2023/07/12 12:00:24;;;;;;;4.50;2.17;;;26.70;99.90;;;;;;5040893;28;20409;-65
2023/07/12 12:02:55;;;;;;;2.63;2.10;;;26.50;99.90;;;;;;5035347;28;20409;-75
2023/07/12 12:05:28;;;;;;;6.17;2.03;;;25.80;99.90;;;;;;5034216;28;20544;-73
2023/07/12 12:07:56;;;;;;;5.23;1.87;;;25.30;99.90;;;;;;5032778;28;20457;-66
2023/07/12 12:10:25;;;;;;;5.47;2.80;;;24.60;99.90;;;;;;5035559;28;20410;-73
2023/07/12 12:12:53;;;;;;;2.97;2.10;;;24.10;99.90;;;;;;5034559;28;20466;-65
2023/07/12 12:15:22;;;;;;;4.83;2.10;;;23.60;99.90;;;;;;5032919;28;20585;-66
2023/07/12 12:17:50;;;;;;;4.80;1.90;;;23.20;99.90;;;;;;5021489;28;20450;-65
2023/07/12 12:20:20;;;;;;;3.73;2.93;;;23.00;99.90;;;;;;5015579;28;20410;-67
2023/07/12 12:22:56;;;;;;;5.97;2.10;;;23.60;99.90;;;;;;5015577;28;20832;-68
2023/07/12 12:25:24;;;;;;;5.40;1.70;;;24.80;99.90;;;;;;5021428;28;20648;-74
2023/07/12 12:27:51;;;;;;;4.53;2.50;;;25.80;99.90;;;;;;5033708;28;20473;-76
2023/07/12 12:30:20;;;;;;;6.87;2.20;;;25.80;99.90;;;;;;5030921;28;20418;-77
2023/07/12 12:33:03;;;;;;;3.57;2.07;;;25.40;99.90;;;;;;5021860;28;20477;-73
2023/07/12 12:35:29;;;;;;;5.20;2.13;;;25.40;99.90;;;;;;5028516;28;20505;-69
2023/07/12 12:37:56;;;;;;;4.80;1.90;;;25.00;99.90;;;;;;5034014;28;20418;-78
2023/07/12 12:40:22;;;;;;;3.73;2.30;;;25.60;99.90;;;;;;5035049;28;20406;-72
2023/07/12 12:42:58;;;;;;;3.60;2.10;;;25.80;99.90;;;;;;5018677;28;20427;-78
2023/07/12 12:45:31;;;;;;;4.30;2.17;;;25.40;99.90;;;;;;5013769;28;21053;-76
2023/07/12 12:47:58;;;;;;;4.80;2.00;;;24.90;99.90;;;;;;5034287;28;20466;-70
2023/07/12 12:50:24;;;;;;;4.63;1.87;;;24.30;99.90;;;;;;5034882;28;20398;-69
2023/07/12 12:52:50;;;;;;;6.93;3.70;;;24.00;99.90;;;;;;5034836;28;20497;-77
2023/07/12 12:55:15;;;;;;;4.67;2.53;;;23.50;99.90;;;;;;5031509;28;20851;-75
2023/07/12 12:57:42;;;;;;;5.17;2.10;;;23.20;99.90;;;;;;5015881;28;20721;-68
2023/07/12 13:00:17;;;;;;;8.13;2.17;;;23.10;99.90;;;;;;5013743;28;20165;-69
2023/07/12 13:02:44;;;;;;;12.10;2.33;;;23.00;99.90;;;;;;5015619;28;20435;-77
2023/07/12 13:05:10;;;;;;;3.90;2.13;;;22.90;99.90;;;;;;5013970;28;20400;-69
2023/07/12 13:07:38;;;;;;;5.43;2.90;;;22.70;99.90;;;;;;5014667;28;20441;-78
2023/07/12 13:10:06;;;;;;;6.20;2.23;;;22.80;99.90;;;;;;5024218;28;20203;-71
2023/07/12 13:12:35;;;;;;;3.93;2.40;;;22.70;99.90;;;;;;5030518;28;21016;-71
2023/07/12 13:15:02;;;;;;;2.83;2.30;;;22.70;99.90;;;;;;5030553;28;20394;-70
2023/07/12 13:17:29;;;;;;;5.97;2.47;;;22.50;99.90;;;;;;5014676;28;20419;-69
2023/07/12 13:19:56;;;;;;;2.67;1.80;;;22.50;99.90;;;;;;5015954;28;20458;-68
2023/07/12 13:22:24;;;;;;;3.20;2.00;;;22.50;99.90;;;;;;5014204;28;20750;-68
2023/07/12 13:24:52;;;;;;;3.20;2.10;;;22.40;99.90;;;;;;5014255;28;20930;-67
2023/07/12 13:27:33;;;;;;;5.47;2.20;;;22.40;99.90;;;;;;5024211;28;20453;-70
2023/07/12 13:30:00;;;;;;;3.37;2.10;;;22.40;99.90;;;;;;5033618;28;20452;-71
2023/07/12 13:32:27;;;;;;;2.83;2.40;;;22.50;99.90;;;;;;5034154;28;20493;-75
2023/07/12 13:34:54;;;;;;;2.37;1.80;;;22.70;99.90;;;;;;5031487;28;20442;-69
2023/07/12 13:37:26;;;;;;;3.17;1.87;;;23.20;99.90;;;;;;5032779;28;20419;-78
2023/07/12 13:39:53;;;;;;;4.60;2.37;;;23.70;99.90;;;;;;5033014;28;20418;-67
2023/07/12 13:42:19;;;;;;;2.40;2.20;;;23.70;99.90;;;;;;5033179;28;20422;-68
2023/07/12 13:44:45;;;;;;;3.43;1.80;;;23.20;99.90;;;;;;5033029;28;20402;-74
2023/07/12 13:47:25;;;;;;;7.67;2.67;;;23.20;99.90;;;;;;5022608;28;20204;-69
2023/07/12 13:49:51;;;;;;;4.73;2.23;;;23.50;99.90;;;;;;5032085;28;20229;-68
2023/07/12 13:52:19;;;;;;;4.30;1.90;;;23.30;99.90;;;;;;5025379;28;20481;-74
2023/07/12 13:54:46;;;;;;;5.23;2.10;;;23.40;99.90;;;;;;5013331;28;20876;-69
2023/07/12 13:57:17;;;;;;;5.10;1.80;;;23.30;99.90;;;;;;5021526;28;20441;-75
2023/07/12 13:59:44;;;;;;;5.20;2.10;;;23.40;99.90;;;;;;5033666;28;20449;-78
2023/07/12 14:02:29;;;;;;;4.77;2.80;;;23.60;99.90;;;;;;5027444;28;20418;-68
2023/07/12 14:04:56;;;;;;;4.90;2.77;;;23.60;99.90;;;;;;5033165;28;20398;-70
2023/07/12 14:07:33;;;;;;;4.40;2.53;;;23.30;99.90;;;;;;5032796;28;20422;-78
2023/07/12 14:09:59;;;;;;;4.57;2.67;;;23.30;99.90;;;;;;5020911;28;20431;-69
2023/07/12 14:12:27;;;;;;;5.70;2.73;;;23.30;99.90;;;;;;5021262;28;20426;-73
2023/07/12 14:14:53;;;;;;;4.70;2.77;;;23.00;99.90;;;;;;5028043;28;20422;-72
2023/07/12 14:17:21;;;;;;;5.00;2.27;;;22.60;99.90;;;;;;5028449;28;20493;-67
2023/07/12 14:19:51;;;;;;;3.93;2.10;;;22.30;99.90;;;;;;5029806;28;20431;-74
2023/07/12 14:22:25;;;;;;;7.93;3.00;;;22.30;99.90;;;;;;5026086;28;20450;-78
2023/07/12 14:24:51;;;;;;;4.03;2.73;;;22.10;99.90;;;;;;5035890;28;20428;-69
2023/07/12 14:27:18;;;;;;;2.77;2.47;;;21.90;99.90;;;;;;5031199;28;20449;-76
2023/07/12 14:29:49;;;;;;;12.93;5.60;;;22.00;99.90;;;;;;5033143;28;20456;-68
2023/07/12 14:32:27;;;;;;;4.87;2.53;;;22.00;99.90;;;;;;5031711;28;20414;-78
2023/07/12 14:34:54;;;;;;;4.10;2.40;;;21.90;99.90;;;;;;5032626;28;20398;-71
2023/07/12 14:37:22;;;;;;;4.77;3.00;;;22.00;99.90;;;;;;5028087;28;20541;-78
2023/07/12 14:39:47;;;;;;;6.50;2.60;;;22.10;99.90;;;;;;5033038;28;20418;-73
2023/07/12 14:42:28;;;;;;;7.13;2.43;;;22.10;99.90;;;;;;5029962;28;20468;-77
2023/07/12 14:44:54;;;;;;;4.40;2.80;;;22.00;99.90;;;;;;5032868;28;20174;-78
2023/07/12 14:47:23;;;;;;;4.47;2.47;;;22.00;99.90;;;;;;5028673;28;20441;-78
2023/07/12 14:49:50;;;;;;;8.70;3.20;;;22.30;99.90;;;;;;5029985;28;20498;-70
2023/07/12 14:52:33;;;;;;;4.10;2.70;;;22.80;99.90;;;;;;5015934;28;20950;-69